Time;durP1;ratioP1;P1;durP2;ratioP2;P2;SDS_P1;SDS_P2;PMS_P1;PMS_P2;Temp;Humidity;BMP_temperature;BMP_pressure;BME280_temperature;BME280_humidity;BME280_pressure;Samples;Min_cycle;Max_cycle;Signal;HPM_P1;HPM_P2
2022/06/01 00:00:44;;;;;;;6.17;5.37;;;12.70;99.90;;;;;;5015550;28;20415;-79
2022/06/01 00:03:10;;;;;;;6.20;4.63;;;12.80;99.90;;;;;;5015759;28;20495;-79
2022/06/01 00:05:36;;;;;;;5.97;4.53;;;12.80;99.90;;;;;;5015602;28;20430;-79
2022/06/01 00:08:03;;;;;;;6.20;5.20;;;12.80;99.90;;;;;;5015903;28;20435;-79
2022/06/01 00:10:29;;;;;;;10.50;5.20;;;12.70;99.90;;;;;;5015542;28;20501;-80
2022/06/01 00:12:55;;;;;;;6.40;4.23;;;12.60;99.90;;;;;;5015883;28;20423;-80
2022/06/01 00:15:22;;;;;;;8.40;4.97;;;12.50;99.90;;;;;;5016251;28;20418;-79
2022/06/01 00:17:48;;;;;;;6.57;5.27;;;12.60;99.90;;;;;;5015737;28;20266;-79
2022/06/01 00:20:14;;;;;;;7.53;5.17;;;12.60;99.90;;;;;;5018770;28;20902;-80
2022/06/01 00:22:44;;;;;;;6.23;5.30;;;12.60;99.90;;;;;;5022010;28;20184;-80
2022/06/01 00:25:12;;;;;;;6.70;4.60;;;12.60;99.90;;;;;;5021334;28;20805;-80
2022/06/01 00:27:38;;;;;;;8.33;5.40;;;12.50;99.90;;;;;;5021036;28;20498;-80
2022/06/01 00:30:10;;;;;;;5.40;4.63;;;12.60;99.90;;;;;;5021538;28;20424;-81
2022/06/01 00:32:39;;;;;;;7.07;5.40;;;12.60;99.90;;;;;;5020772;28;20192;-80
2022/06/01 00:35:06;;;;;;;7.97;5.10;;;12.60;99.90;;;;;;5020615;28;20427;-79
2022/06/01 00:37:32;;;;;;;5.97;4.83;;;12.50;99.90;;;;;;5020454;28;20474;-79
2022/06/01 00:39:58;;;;;;;8.10;5.27;;;12.50;99.90;;;;;;5034561;23;20920;-79
2022/06/01 00:42:28;;;;;;;6.63;5.30;;;12.50;99.90;;;;;;5032900;28;20439;-80
2022/06/01 00:44:54;;;;;;;7.90;5.07;;;12.50;99.90;;;;;;5034846;28;20238;-81
2022/06/01 00:47:22;;;;;;;6.53;5.83;;;12.40;99.90;;;;;;5034131;28;20411;-78
2022/06/01 00:50:00;;;;;;;7.67;5.30;;;12.40;99.90;;;;;;5017132;28;20200;-78
2022/06/01 00:52:37;;;;;;;5.80;4.57;;;12.30;99.90;;;;;;5016502;28;20408;-78
2022/06/01 00:55:10;;;;;;;5.50;4.80;;;12.40;99.90;;;;;;5014772;28;20478;-78
2022/06/01 00:57:37;;;;;;;9.47;4.10;;;12.30;99.90;;;;;;4997057;28;21061;-79
2022/06/01 01:00:16;;;;;;;5.53;4.00;;;12.30;99.90;;;;;;5014817;28;20527;-78
2022/06/01 01:02:41;;;;;;;5.07;3.90;;;12.30;99.90;;;;;;4997437;28;20416;-78
2022/06/01 01:05:10;;;;;;;4.13;3.23;;;12.30;99.90;;;;;;5014490;28;20416;-78
2022/06/01 01:07:38;;;;;;;5.90;4.00;;;12.20;99.90;;;;;;5014389;28;20181;-78
2022/06/01 01:10:05;;;;;;;5.10;4.03;;;12.10;99.90;;;;;;5014257;28;20446;-78
2022/06/01 01:12:56;;;;;;;6.30;4.13;;;12.00;99.90;;;;;;5014535;28;20506;-78
2022/06/01 01:15:17;;;;;;;4.57;3.47;;;12.00;99.90;;;;;;5014128;28;20420;-78
2022/06/01 01:17:44;;;;;;;5.07;3.67;;;11.90;99.90;;;;;;4996370;28;20467;-78
2022/06/01 01:20:10;;;;;;;3.90;3.00;;;11.90;99.90;;;;;;5013979;28;20493;-78
2022/06/01 01:22:58;;;;;;;4.60;3.73;;;11.80;99.90;;;;;;5014129;28;20506;-79
2022/06/01 01:25:29;;;;;;;6.70;3.77;;;11.80;99.90;;;;;;4996312;28;20411;-79
2022/06/01 01:27:59;;;;;;;4.67;3.90;;;11.60;99.90;;;;;;5013893;28;20416;-79
2022/06/01 01:30:37;;;;;;;5.07;3.57;;;11.70;99.90;;;;;;5013623;28;20874;-78
2022/06/01 01:33:08;;;;;;;5.20;3.77;;;11.80;99.90;;;;;;5014225;28;20404;-79
2022/06/01 01:35:35;;;;;;;4.20;2.87;;;11.80;99.90;;;;;;5013674;28;20435;-79
2022/06/01 01:38:06;;;;;;;4.10;3.10;;;11.60;99.90;;;;;;5013763;28;20827;-78
2022/06/01 01:40:32;;;;;;;4.87;3.43;;;11.60;99.90;;;;;;5013950;28;20458;-78
2022/06/01 01:43:00;;;;;;;4.47;3.40;;;11.60;99.90;;;;;;5013653;28;20503;-79
2022/06/01 01:45:31;;;;;;;4.50;3.40;;;11.60;99.90;;;;;;5013603;28;20412;-79
2022/06/01 01:47:57;;;;;;;4.40;3.00;;;11.50;99.90;;;;;;5013494;28;20408;-78
2022/06/01 01:50:24;;;;;;;7.33;3.57;;;11.40;99.90;;;;;;5013721;28;21012;-78
2022/06/01 01:52:50;;;;;;;3.60;2.53;;;11.40;99.90;;;;;;5013680;28;20606;-79
2022/06/01 01:55:49;;;;;;;8.40;3.93;;;11.40;99.90;;;;;;5013271;28;20517;-79
2022/06/01 01:58:30;;;;;;;4.60;2.97;;;11.30;99.90;;;;;;5013378;28;20456;-78
2022/06/01 02:01:06;;;;;;;4.73;2.97;;;11.40;99.90;;;;;;5013750;28;20392;-79
2022/06/01 02:03:41;;;;;;;3.87;3.07;;;11.40;99.90;;;;;;5013384;28;20411;-78
2022/06/01 02:06:20;;;;;;;5.90;3.00;;;11.50;99.90;;;;;;5013182;28;20779;-78
2022/06/01 02:08:54;;;;;;;4.00;3.20;;;11.50;99.90;;;;;;5013142;28;20530;-78
2022/06/01 02:14:25;;;;;;;3.63;2.50;;;11.50;99.90;;;;;;5013240;28;20793;-78
2022/06/01 02:17:07;;;;;;;4.70;2.87;;;11.40;99.90;;;;;;5012879;28;20455;-80
2022/06/01 02:19:38;;;;;;;5.63;3.20;;;11.40;99.90;;;;;;5013026;28;20462;-78
2022/06/01 02:22:04;;;;;;;5.33;2.83;;;11.40;99.90;;;;;;4995635;28;20788;-78
2022/06/01 02:24:30;;;;;;;3.90;2.73;;;11.40;99.90;;;;;;5012950;28;20410;-78
2022/06/01 02:26:58;;;;;;;5.63;3.60;;;11.40;99.90;;;;;;5013818;28;20430;-78
2022/06/01 02:29:34;;;;;;;4.50;2.90;;;11.40;99.90;;;;;;5014174;28;20949;-78
2022/06/01 02:32:02;;;;;;;4.40;2.40;;;11.40;99.90;;;;;;5014059;28;20557;-78
2022/06/01 02:34:29;;;;;;;4.03;2.77;;;11.30;99.90;;;;;;5014013;28;20421;-79
2022/06/01 02:36:56;;;;;;;4.60;2.93;;;11.30;99.90;;;;;;5013225;28;20456;-79
2022/06/01 02:39:24;;;;;;;4.97;2.87;;;11.30;99.90;;;;;;4995812;28;20464;-78
2022/06/01 02:44:34;;;;;;;5.70;3.07;;;11.30;99.90;;;;;;5013561;28;20391;-78
2022/06/01 02:46:59;;;;;;;5.47;4.00;;;11.30;99.90;;;;;;4995343;28;20431;-78
2022/06/01 02:49:25;;;;;;;5.00;3.13;;;11.30;99.90;;;;;;5013148;28;20237;-78
2022/06/01 02:51:51;;;;;;;5.97;3.17;;;11.30;99.90;;;;;;5013002;28;20190;-78
2022/06/01 02:54:16;;;;;;;6.10;3.10;;;11.30;99.90;;;;;;4995501;28;20191;-78
2022/06/01 02:56:43;;;;;;;5.20;3.30;;;11.20;99.90;;;;;;5012551;28;20416;-78
2022/06/01 02:59:08;;;;;;;7.37;3.57;;;11.20;99.90;;;;;;5012713;28;20194;-78
2022/06/01 03:01:36;;;;;;;5.30;3.20;;;11.30;99.90;;;;;;5013277;28;20409;-80
2022/06/01 03:04:02;;;;;;;4.63;2.80;;;11.30;99.90;;;;;;5013715;28;20176;-81
2022/06/01 03:06:28;;;;;;;5.20;3.47;;;11.30;99.90;;;;;;4995892;28;20427;-80
2022/06/01 03:08:53;;;;;;;4.00;3.27;;;11.40;99.90;;;;;;5013223;28;20428;-80
2022/06/01 03:11:19;;;;;;;5.90;3.10;;;11.30;99.90;;;;;;5013646;28;20177;-80
2022/06/01 03:13:44;;;;;;;3.97;2.60;;;11.30;99.90;;;;;;5013570;28;20176;-79
2022/06/01 03:16:10;;;;;;;4.53;2.73;;;11.30;99.90;;;;;;5013552;28;20177;-79
2022/06/01 03:18:36;;;;;;;3.77;2.70;;;11.30;99.90;;;;;;4995767;28;20347;-80
2022/06/01 03:21:01;;;;;;;4.53;2.90;;;11.20;99.90;;;;;;5013369;28;20188;-80
2022/06/01 03:23:27;;;;;;;4.77;3.10;;;11.10;99.90;;;;;;5013377;28;20180;-78
2022/06/01 03:25:53;;;;;;;4.33;2.73;;;11.10;99.90;;;;;;5012984;28;20548;-80
2022/06/01 03:28:19;;;;;;;4.93;2.93;;;11.00;99.90;;;;;;4995558;28;20424;-80
2022/06/01 03:30:45;;;;;;;4.13;3.27;;;11.10;99.90;;;;;;5013415;28;20648;-80
2022/06/01 03:33:13;;;;;;;4.37;3.60;;;11.10;99.90;;;;;;5013370;28;20180;-79
2022/06/01 03:35:39;;;;;;;9.57;3.87;;;11.10;99.90;;;;;;5012371;28;20423;-80
2022/06/01 03:38:06;;;;;;;4.40;2.80;;;11.00;99.90;;;;;;4995659;28;20467;-79
2022/06/01 03:40:33;;;;;;;4.57;3.30;;;11.00;99.90;;;;;;5012998;28;20431;-79
2022/06/01 03:43:00;;;;;;;5.10;2.90;;;11.00;99.90;;;;;;4995603;28;20420;-79
2022/06/01 03:48:10;;;;;;;4.60;3.00;;;10.90;99.90;;;;;;5013290;28;20490;-78
2022/06/01 03:50:36;;;;;;;5.37;3.80;;;11.00;99.90;;;;;;5012977;28;20416;-79
2022/06/01 03:53:02;;;;;;;4.00;3.27;;;10.90;99.90;;;;;;5013547;28;20185;-79
2022/06/01 03:55:28;;;;;;;4.50;3.03;;;11.00;99.90;;;;;;5016634;28;20213;-80
2022/06/01 03:57:54;;;;;;;4.30;3.10;;;11.00;99.90;;;;;;5016171;28;20196;-79
2022/06/01 04:00:22;;;;;;;5.57;3.23;;;11.00;99.90;;;;;;5016718;28;20439;-80
2022/06/01 04:02:49;;;;;;;4.40;3.00;;;11.00;99.90;;;;;;5016877;28;20177;-79
2022/06/01 04:05:16;;;;;;;4.90;3.63;;;11.00;99.90;;;;;;5016223;28;20419;-79
2022/06/01 04:07:41;;;;;;;4.73;3.13;;;11.10;99.90;;;;;;5016071;28;20426;-80
2022/06/01 04:10:08;;;;;;;4.50;3.53;;;11.10;99.90;;;;;;5016188;28;20855;-79
2022/06/01 04:12:34;;;;;;;4.33;3.27;;;11.10;99.90;;;;;;5016104;28;20176;-78
2022/06/01 04:15:00;;;;;;;5.37;3.00;;;11.10;99.90;;;;;;5016209;28;20498;-80
2022/06/01 04:17:25;;;;;;;4.30;3.57;;;11.20;99.90;;;;;;5015873;28;20556;-79
2022/06/01 04:19:51;;;;;;;4.00;3.00;;;11.20;99.90;;;;;;5016114;28;20283;-79
2022/06/01 04:22:19;;;;;;;5.07;3.50;;;11.10;99.90;;;;;;5016362;28;20203;-78
2022/06/01 04:24:45;;;;;;;4.70;2.70;;;11.20;99.90;;;;;;5015960;28;20571;-78
2022/06/01 04:27:10;;;;;;;3.80;3.10;;;11.20;99.90;;;;;;4997792;28;20433;-79
2022/06/01 04:29:36;;;;;;;6.37;3.30;;;11.30;99.90;;;;;;5015807;28;20200;-79
2022/06/01 04:32:10;;;;;;;5.30;3.17;;;11.40;99.90;;;;;;5015726;28;20177;-78
2022/06/01 04:34:36;;;;;;;5.27;3.53;;;11.50;99.90;;;;;;5009422;28;20181;-78
2022/06/01 04:37:02;;;;;;;4.97;3.30;;;11.50;99.90;;;;;;5009063;28;20588;-79
2022/06/01 04:39:28;;;;;;;4.60;3.13;;;11.60;99.90;;;;;;5016114;28;20220;-78
2022/06/01 04:41:56;;;;;;;4.50;2.80;;;11.60;99.90;;;;;;5015517;28;20180;-78
2022/06/01 04:44:22;;;;;;;4.93;3.47;;;11.60;99.90;;;;;;5015209;28;20458;-78
2022/06/01 04:46:47;;;;;;;4.90;3.50;;;11.60;99.90;;;;;;5014780;28;20420;-78
2022/06/01 04:49:14;;;;;;;5.10;3.27;;;11.70;99.90;;;;;;4997622;28;20291;-79
2022/06/01 04:51:39;;;;;;;5.13;3.07;;;11.70;99.90;;;;;;5015235;28;20177;-78
2022/06/01 04:54:07;;;;;;;4.50;3.43;;;11.80;99.90;;;;;;5015499;28;20431;-78
2022/06/01 04:56:32;;;;;;;5.33;3.57;;;11.90;99.90;;;;;;5014852;28;20169;-78
2022/06/01 04:58:58;;;;;;;4.33;3.10;;;11.90;99.90;;;;;;5014972;28;20861;-78
2022/06/01 05:01:24;;;;;;;4.30;2.77;;;11.90;99.90;;;;;;5014945;28;20440;-78
2022/06/01 05:03:49;;;;;;;5.17;3.37;;;12.00;99.90;;;;;;5014920;28;20667;-78
2022/06/01 05:06:15;;;;;;;6.67;3.80;;;12.00;99.90;;;;;;5013160;28;20169;-78
2022/06/01 05:08:40;;;;;;;4.57;3.60;;;12.10;99.90;;;;;;5003259;28;20196;-78
2022/06/01 05:11:06;;;;;;;5.83;3.63;;;12.20;99.90;;;;;;5018854;28;20181;-78
2022/06/01 05:13:32;;;;;;;5.27;3.20;;;12.20;99.90;;;;;;5033960;28;20187;-78
2022/06/01 05:16:01;;;;;;;4.30;3.30;;;12.30;99.90;;;;;;5032360;28;20183;-78
2022/06/01 05:18:27;;;;;;;4.90;3.60;;;12.40;99.90;;;;;;5033359;28;20239;-79
2022/06/01 05:20:55;;;;;;;5.67;3.40;;;12.50;99.90;;;;;;5029323;28;20440;-79
2022/06/01 05:23:22;;;;;;;4.47;3.30;;;12.50;99.90;;;;;;5015239;28;20181;-78
2022/06/01 05:25:50;;;;;;;6.00;3.20;;;12.60;99.90;;;;;;5015053;28;20421;-79
2022/06/01 05:28:19;;;;;;;5.80;3.50;;;12.60;99.90;;;;;;5014756;28;20833;-80
2022/06/01 05:30:44;;;;;;;4.50;3.00;;;12.70;99.90;;;;;;5015006;28;20987;-79
2022/06/01 05:33:10;;;;;;;4.73;3.10;;;12.80;99.90;;;;;;5014696;28;20416;-80
2022/06/01 05:35:35;;;;;;;4.40;2.87;;;12.80;99.90;;;;;;5014571;28;20566;-80
2022/06/01 05:38:01;;;;;;;5.30;3.73;;;12.90;99.90;;;;;;5014224;28;20196;-78
2022/06/01 05:40:30;;;;;;;5.30;3.37;;;13.00;99.90;;;;;;5013980;28;20212;-78
2022/06/01 05:42:58;;;;;;;7.00;2.70;;;13.00;99.90;;;;;;5014313;28;20549;-79
2022/06/01 05:45:24;;;;;;;6.73;3.90;;;13.10;99.90;;;;;;4996397;28;20419;-80
2022/06/01 05:47:50;;;;;;;3.77;2.80;;;13.20;99.90;;;;;;5013769;28;20416;-78
2022/06/01 05:50:16;;;;;;;4.93;3.20;;;13.30;99.90;;;;;;4996480;28;20847;-79
2022/06/01 05:52:41;;;;;;;3.30;2.40;;;13.40;99.90;;;;;;5014428;28;20180;-79
2022/06/01 05:55:09;;;;;;;4.63;2.93;;;13.50;99.90;;;;;;5013630;28;20177;-78
2022/06/01 05:57:35;;;;;;;4.73;3.33;;;13.60;99.90;;;;;;5013572;28;20284;-78
2022/06/01 06:00:04;;;;;;;4.90;3.27;;;13.70;99.90;;;;;;5013654;28;20519;-79
2022/06/01 06:02:30;;;;;;;7.13;3.47;;;13.70;99.90;;;;;;5013356;28;20417;-79
2022/06/01 06:04:55;;;;;;;6.80;3.43;;;13.90;99.90;;;;;;4995929;28;20412;-79
2022/06/01 06:07:21;;;;;;;3.97;2.60;;;13.80;99.90;;;;;;5013373;28;20181;-79
2022/06/01 06:09:46;;;;;;;4.40;2.53;;;13.80;99.90;;;;;;5013501;28;20197;-80
2022/06/01 06:12:12;;;;;;;5.07;2.90;;;13.90;99.90;;;;;;5013570;28;20181;-79
2022/06/01 06:14:38;;;;;;;3.87;2.47;;;13.90;99.90;;;;;;5013436;28;20551;-79
2022/06/01 06:17:04;;;;;;;4.80;2.77;;;13.80;99.90;;;;;;4994440;28;20196;-79
2022/06/01 06:19:29;;;;;;;3.97;2.90;;;13.90;99.90;;;;;;4997004;28;20260;-80
2022/06/01 06:21:55;;;;;;;4.93;3.10;;;14.00;99.90;;;;;;5014581;28;20189;-79
2022/06/01 06:24:21;;;;;;;4.13;2.40;;;14.00;99.90;;;;;;5015221;28;20177;-80
2022/06/01 06:26:47;;;;;;;3.97;2.70;;;14.00;99.90;;;;;;5033800;28;20173;-79
2022/06/01 06:29:15;;;;;;;4.03;2.60;;;14.10;99.90;;;;;;5016454;28;20439;-80
2022/06/01 06:31:41;;;;;;;4.97;3.13;;;14.10;99.90;;;;;;5014371;28;20466;-79
2022/06/01 06:34:07;;;;;;;7.93;3.00;;;14.10;99.90;;;;;;5021567;28;20418;-79
2022/06/01 06:36:33;;;;;;;4.20;2.40;;;14.10;99.90;;;;;;5033373;28;20407;-79
2022/06/01 06:38:58;;;;;;;4.20;2.60;;;14.10;99.90;;;;;;5052844;22;20344;-79
2022/06/01 06:41:24;;;;;;;5.23;2.60;;;14.30;99.90;;;;;;4995109;28;20735;-79
2022/06/01 06:43:51;;;;;;;4.20;2.50;;;14.50;99.90;;;;;;5011260;28;20181;-79
2022/06/01 06:46:20;;;;;;;4.63;2.40;;;14.90;99.90;;;;;;5012375;28;20498;-79
2022/06/01 06:48:50;;;;;;;4.80;2.60;;;15.20;99.90;;;;;;5012320;28;20439;-79
2022/06/01 06:51:17;;;;;;;4.40;2.70;;;15.40;99.90;;;;;;5012653;28;20412;-79
2022/06/01 06:53:42;;;;;;;5.80;3.17;;;15.70;99.90;;;;;;5014140;28;20423;-80
2022/06/01 06:56:08;;;;;;;4.27;2.30;;;15.80;99.90;;;;;;5013097;28;20842;-80
2022/06/01 06:58:37;;;;;;;4.90;3.00;;;16.00;99.90;;;;;;4995725;28;20299;-80
2022/06/01 07:01:03;;;;;;;3.73;2.60;;;16.00;99.90;;;;;;5004516;28;20180;-80
2022/06/01 07:03:29;;;;;;;3.60;2.30;;;16.10;99.90;;;;;;5026339;28;20423;-80
2022/06/01 07:06:13;;;;;;;4.47;2.80;;;16.20;99.90;;;;;;5019332;28;20415;-81
2022/06/01 07:08:41;;;;;;;3.33;2.27;;;16.10;99.90;;;;;;5001830;28;20177;-81
2022/06/01 07:11:07;;;;;;;4.87;2.97;;;16.30;99.90;;;;;;5001948;28;20443;-81
2022/06/01 07:13:33;;;;;;;4.60;3.17;;;16.10;99.90;;;;;;5019101;28;20920;-81
2022/06/01 07:16:14;;;;;;;4.20;2.90;;;16.10;99.90;;;;;;5000939;28;21127;-80
2022/06/01 07:18:43;;;;;;;4.53;2.60;;;16.10;99.90;;;;;;5001396;28;20490;-81
2022/06/01 07:21:09;;;;;;;3.73;2.40;;;16.20;99.90;;;;;;5019223;28;20907;-81
2022/06/01 07:23:37;;;;;;;4.23;2.33;;;16.30;99.90;;;;;;5018687;28;20506;-81
2022/06/01 07:26:07;;;;;;;6.10;3.00;;;16.30;99.90;;;;;;5000882;28;20997;-81
2022/06/01 07:28:33;;;;;;;3.40;2.20;;;16.20;99.90;;;;;;5017031;28;20895;-79
2022/06/01 07:30:59;;;;;;;4.03;2.30;;;16.20;99.90;;;;;;4999264;28;20446;-79
2022/06/01 07:33:28;;;;;;;4.90;2.90;;;16.40;99.90;;;;;;5016903;28;20684;-80
2022/06/01 07:35:54;;;;;;;5.00;2.50;;;16.60;99.90;;;;;;4998772;28;20450;-80
2022/06/01 07:43:49;;;;;;;5.50;2.17;;;17.10;99.90;;;;;;5017089;28;20450;-80
2022/06/01 07:46:15;;;;;;;4.87;2.53;;;17.20;99.90;;;;;;4998609;28;20416;-80
2022/06/01 07:48:40;;;;;;;5.87;2.80;;;17.30;99.90;;;;;;4998731;28;20192;-79
2022/06/01 07:51:06;;;;;;;3.10;2.07;;;17.30;99.90;;;;;;4998831;28;20200;-79
2022/06/01 07:53:32;;;;;;;2.70;1.90;;;17.20;99.90;;;;;;5016582;28;20196;-79
2022/06/01 07:55:58;;;;;;;3.73;2.30;;;17.20;99.90;;;;;;5016113;28;20181;-79
2022/06/01 07:58:24;;;;;;;5.63;2.07;;;17.40;99.90;;;;;;4998686;28;20471;-79
2022/06/01 08:00:49;;;;;;;3.23;2.20;;;17.70;99.90;;;;;;4998365;28;20444;-80
2022/06/01 08:03:17;;;;;;;3.10;1.70;;;17.90;99.90;;;;;;5015985;28;20184;-79
2022/06/01 08:05:43;;;;;;;4.37;2.40;;;18.20;99.90;;;;;;4997755;28;20235;-79
2022/06/01 08:08:09;;;;;;;4.13;1.80;;;18.40;99.90;;;;;;5015694;28;20836;-80
2022/06/01 08:10:36;;;;;;;3.67;2.10;;;18.70;99.90;;;;;;5015853;28;20488;-79
2022/06/01 08:13:09;;;;;;;5.40;3.20;;;19.20;99.90;;;;;;4998159;28;20495;-78
2022/06/01 08:15:38;;;;;;;3.90;2.03;;;19.30;99.90;;;;;;4997877;28;20424;-80
2022/06/01 08:18:04;;;;;;;3.70;1.93;;;19.90;99.90;;;;;;4997571;28;20467;-80
2022/06/01 08:20:31;;;;;;;3.27;2.00;;;21.00;99.90;;;;;;4991343;28;20474;-81
2022/06/01 08:22:56;;;;;;;3.27;2.10;;;20.80;99.90;;;;;;4978752;28;20416;-80
2022/06/01 08:25:23;;;;;;;4.60;2.23;;;20.20;99.90;;;;;;4978547;28;20491;-81
2022/06/01 08:27:49;;;;;;;3.40;2.30;;;20.10;99.90;;;;;;4992913;28;20474;-82
2022/06/01 08:30:17;;;;;;;4.67;2.17;;;19.70;99.90;;;;;;4980378;28;20966;-83
2022/06/01 08:32:42;;;;;;;2.67;1.97;;;19.30;99.90;;;;;;4992296;28;20189;-81
2022/06/01 08:35:10;;;;;;;3.70;2.00;;;18.90;99.90;;;;;;4996409;28;20409;-82
2022/06/01 08:37:36;;;;;;;3.20;1.73;;;18.90;99.90;;;;;;4990578;28;20220;-81
2022/06/01 08:40:04;;;;;;;2.87;1.90;;;18.90;99.90;;;;;;4998350;28;20845;-81
2022/06/01 08:42:31;;;;;;;2.87;1.60;;;18.90;99.90;;;;;;4998421;28;20428;-81
2022/06/01 08:45:02;;;;;;;4.17;1.80;;;18.80;99.90;;;;;;4998869;28;20416;-81
2022/06/01 08:47:32;;;;;;;3.30;1.83;;;18.60;99.90;;;;;;4998545;28;20485;-81
2022/06/01 08:50:05;;;;;;;4.37;1.87;;;19.30;99.90;;;;;;4998861;28;20448;-81
2022/06/01 08:52:31;;;;;;;3.00;1.80;;;20.60;99.90;;;;;;4999035;28;20424;-81
2022/06/01 08:54:57;;;;;;;3.17;1.67;;;21.90;99.90;;;;;;4998182;28;20435;-82
2022/06/01 08:57:28;;;;;;;2.80;1.60;;;23.20;99.90;;;;;;4998000;28;20219;-81
2022/06/01 09:00:00;;;;;;;3.03;1.60;;;24.60;99.90;;;;;;4996054;28;20589;-80
2022/06/01 09:03:05;;;;;;;5.00;2.20;;;25.30;92.80;;;;;;4982152;28;20943;-81
2022/06/01 09:05:39;;;;;;;3.10;1.93;;;23.30;93.60;;;;;;4982561;28;20503;-80
2022/06/01 09:08:20;;;;;;;2.80;1.40;;;22.30;97.80;;;;;;5000872;28;20755;-81
2022/06/01 09:10:57;;;;;;;2.87;1.67;;;21.90;98.70;;;;;;5001294;28;20491;-80
2022/06/01 09:13:26;;;;;;;3.90;1.90;;;23.30;99.90;;;;;;4983308;28;20789;-80
2022/06/01 09:15:59;;;;;;;3.10;1.70;;;24.10;95.30;;;;;;4983714;28;20967;-81
2022/06/01 09:18:29;;;;;;;3.23;2.00;;;25.10;91.20;;;;;;4983018;28;20464;-81
2022/06/01 09:23:41;;;;;;;3.50;1.70;;;26.50;83.50;;;;;;5000999;28;20466;-80
2022/06/01 09:26:07;;;;;;;6.63;1.90;;;26.70;77.10;;;;;;4983163;28;20445;-81
2022/06/01 09:28:41;;;;;;;5.17;2.10;;;26.60;74.50;;;;;;5001011;28;20421;-81
2022/06/01 09:31:26;;;;;;;2.50;1.43;;;26.30;69.20;;;;;;5000490;28;20158;-80
2022/06/01 09:33:52;;;;;;;3.37;1.60;;;26.40;71.30;;;;;;4999611;28;20458;-81
2022/06/01 09:36:27;;;;;;;3.20;1.80;;;26.90;69.60;;;;;;4981684;28;20433;-80
2022/06/01 09:38:56;;;;;;;4.33;1.97;;;27.20;63.40;;;;;;4982103;28;20248;-81
2022/06/01 09:41:24;;;;;;;4.00;1.50;;;27.10;60.60;;;;;;4982890;28;20421;-81
2022/06/01 09:44:10;;;;;;;3.07;1.57;;;25.70;62.40;;;;;;4982783;28;20427;-81
2022/06/01 09:46:50;;;;;;;2.60;1.63;;;24.40;68.40;;;;;;4981956;28;20839;-81
2022/06/01 09:49:29;;;;;;;4.17;1.73;;;23.80;71.30;;;;;;4981592;28;20436;-81
2022/06/01 09:52:21;;;;;;;2.77;1.50;;;24.20;67.90;;;;;;4981696;28;20409;-80
2022/06/01 09:54:55;;;;;;;2.50;1.30;;;24.60;66.90;;;;;;4999393;28;20444;-80
2022/06/01 09:57:32;;;;;;;4.50;1.50;;;24.40;73.10;;;;;;4981720;28;20899;-81
2022/06/01 10:08:26;;;;;;;3.00;1.70;;;25.10;59.90;;;;;;4998890;28;20513;-80
2022/06/01 10:11:04;;;;;;;2.80;1.80;;;23.80;66.40;;;;;;4998871;28;20805;-80
2022/06/01 10:13:33;;;;;;;6.57;1.87;;;22.90;74.70;;;;;;4980208;28;20428;-80
2022/06/01 10:16:12;;;;;;;2.70;1.40;;;22.10;75.20;;;;;;4979860;28;20463;-80
2022/06/01 10:18:40;;;;;;;2.70;1.50;;;21.70;79.30;;;;;;4997702;28;20448;-80
2022/06/01 10:21:09;;;;;;;2.30;1.20;;;22.90;86.00;;;;;;4997498;28;20413;-80
2022/06/01 10:23:39;;;;;;;2.90;1.50;;;24.50;77.50;;;;;;4980393;28;20471;-81
2022/06/01 10:26:18;;;;;;;2.97;1.80;;;25.10;68.80;;;;;;4997496;28;20425;-81
2022/06/01 10:28:48;;;;;;;2.50;1.60;;;23.80;68.20;;;;;;4997509;28;20439;-81
2022/06/01 10:31:31;;;;;;;2.90;1.63;;;23.00;69.60;;;;;;4980086;28;20506;-80
2022/06/01 10:34:29;;;;;;;2.80;1.60;;;22.00;73.30;;;;;;4980346;28;20436;-80
2022/06/01 10:37:10;;;;;;;2.73;1.60;;;21.30;81.90;;;;;;4987710;28;20437;-79
2022/06/01 10:39:42;;;;;;;3.07;1.67;;;21.80;84.00;;;;;;4997234;28;20460;-81
2022/06/01 10:43:17;;;;;;;4.00;1.83;;;22.10;80.90;;;;;;4979741;28;20424;-81
2022/06/01 10:45:27;;;;;;;2.97;1.73;;;22.50;76.60;;;;;;4995004;28;21076;-81
2022/06/01 10:48:11;;;;;;;2.90;2.00;;;22.90;78.70;;;;;;4975444;28;20428;-80
2022/06/01 10:50:59;;;;;;;4.80;2.53;;;22.80;75.00;;;;;;4992286;28;20928;-80
2022/06/01 10:53:28;;;;;;;3.53;1.83;;;23.60;73.10;;;;;;4974889;28;20436;-80
2022/06/01 10:55:54;;;;;;;3.27;2.33;;;24.20;77.50;;;;;;4974781;28;20780;-80
2022/06/01 10:58:22;;;;;;;3.13;1.80;;;23.70;72.10;;;;;;4975220;28;20469;-80
2022/06/01 11:00:50;;;;;;;2.63;1.50;;;23.60;70.40;;;;;;4992538;28;20481;-81
2022/06/01 11:03:37;;;;;;;4.23;1.80;;;23.30;69.70;;;;;;4991888;28;20436;-81
2022/06/01 11:06:27;;;;;;;2.80;1.70;;;22.40;71.30;;;;;;4992249;28;20881;-80
2022/06/01 11:09:22;;;;;;;2.50;1.80;;;21.90;78.30;;;;;;4975096;28;20884;-81
2022/06/01 11:12:04;;;;;;;3.17;1.97;;;21.40;79.90;;;;;;4992481;28;20504;-80
2022/06/01 11:14:57;;;;;;;4.10;2.00;;;21.10;84.60;;;;;;4974868;28;20455;-80
2022/06/01 11:17:31;;;;;;;2.90;1.83;;;21.10;84.40;;;;;;4992007;28;20460;-81
2022/06/01 11:20:39;;;;;;;3.63;2.13;;;21.10;84.50;;;;;;4975012;28;20937;-80
2022/06/01 11:23:20;;;;;;;3.23;1.53;;;21.50;87.00;;;;;;4991297;28;20499;-80
2022/06/01 11:26:04;;;;;;;3.43;1.67;;;21.60;82.20;;;;;;4974264;28;20421;-79
2022/06/01 11:28:55;;;;;;;3.40;1.80;;;21.50;81.00;;;;;;4990913;28;20913;-81
2022/06/01 11:31:25;;;;;;;3.30;2.10;;;21.10;82.70;;;;;;4974857;28;20417;-80
2022/06/01 11:34:03;;;;;;;2.70;1.60;;;21.10;90.60;;;;;;4992459;28;20412;-81
2022/06/01 11:36:39;;;;;;;2.33;1.33;;;21.40;82.70;;;;;;4974391;28;20409;-80
2022/06/01 11:39:17;;;;;;;2.90;1.50;;;21.40;87.40;;;;;;4974841;28;20880;-80
2022/06/01 11:41:58;;;;;;;2.93;1.90;;;21.40;81.00;;;;;;4992182;28;20913;-82
2022/06/01 11:44:40;;;;;;;2.80;1.50;;;21.40;78.60;;;;;;4991148;28;20428;-81
2022/06/01 11:47:14;;;;;;;3.13;1.67;;;21.50;81.40;;;;;;4991840;28;20406;-81
2022/06/01 11:49:42;;;;;;;2.53;1.70;;;21.90;87.10;;;;;;4992456;28;20523;-81
2022/06/01 11:52:22;;;;;;;4.13;2.00;;;21.90;84.60;;;;;;4982592;28;20437;-80
2022/06/01 11:55:12;;;;;;;2.80;1.80;;;22.10;87.90;;;;;;4992388;28;20496;-82
2022/06/01 11:57:44;;;;;;;2.57;1.90;;;22.40;82.20;;;;;;4974372;28;20460;-80
2022/06/01 12:00:31;;;;;;;5.30;1.60;;;22.40;81.60;;;;;;4974363;28;20441;-81
2022/06/01 12:03:15;;;;;;;6.13;2.30;;;22.30;78.90;;;;;;4974617;28;20444;-82
2022/06/01 12:05:57;;;;;;;5.20;1.93;;;21.70;83.50;;;;;;4991608;28;20408;-81
2022/06/01 12:08:30;;;;;;;2.80;1.73;;;21.50;82.30;;;;;;4993302;28;20496;-81
2022/06/01 12:11:04;;;;;;;2.73;1.50;;;21.30;85.30;;;;;;4975423;28;20783;-81
2022/06/01 12:13:52;;;;;;;3.27;1.63;;;21.40;86.00;;;;;;4975282;28;20424;-81
2022/06/01 12:16:25;;;;;;;2.60;1.50;;;21.80;80.10;;;;;;4976404;28;20429;-82
2022/06/01 12:19:09;;;;;;;2.90;1.60;;;22.10;74.40;;;;;;4978604;28;20484;-83
2022/06/01 12:21:44;;;;;;;4.30;1.47;;;22.20;73.80;;;;;;4978618;28;21145;-81
2022/06/01 12:30:08;;;;;;;3.20;1.60;;;22.30;75.90;;;;;;4995797;28;20434;-81
2022/06/01 12:32:59;;;;;;;3.17;1.43;;;22.10;76.80;;;;;;4978441;28;20421;-82
2022/06/01 12:35:29;;;;;;;3.47;1.70;;;21.80;79.40;;;;;;4982812;28;20440;-80
2022/06/01 12:38:00;;;;;;;4.53;1.67;;;21.40;78.00;;;;;;4995914;28;20551;-80
2022/06/01 12:40:27;;;;;;;3.10;1.93;;;21.40;78.90;;;;;;4995412;28;20565;-81
2022/06/01 12:42:55;;;;;;;2.70;1.70;;;21.80;82.10;;;;;;4978447;28;20417;-82
2022/06/01 12:45:24;;;;;;;2.77;1.50;;;21.90;80.10;;;;;;4995191;28;20419;-81
2022/06/01 12:48:00;;;;;;;2.83;1.70;;;21.90;78.00;;;;;;4977863;28;20428;-81
2022/06/01 12:50:29;;;;;;;3.87;1.63;;;21.70;75.80;;;;;;4989539;28;20447;-80
2022/06/01 12:53:10;;;;;;;2.97;1.67;;;21.60;75.80;;;;;;4997335;28;20488;-80
2022/06/01 12:55:35;;;;;;;3.07;2.03;;;21.60;77.70;;;;;;4997217;28;20432;-80
2022/06/01 12:58:12;;;;;;;2.70;1.50;;;21.80;72.90;;;;;;4997079;28;20510;-82
2022/06/01 13:00:45;;;;;;;5.00;1.63;;;22.00;70.00;;;;;;4996529;28;20200;-81
2022/06/01 13:03:12;;;;;;;3.03;1.47;;;22.30;66.70;;;;;;4997104;28;20792;-80
2022/06/01 13:05:40;;;;;;;3.30;1.50;;;22.20;66.40;;;;;;4996694;28;20569;-81
2022/06/01 13:08:18;;;;;;;2.80;1.50;;;22.20;61.50;;;;;;5014749;28;20431;-80
2022/06/01 13:10:44;;;;;;;3.00;1.30;;;22.00;59.40;;;;;;5014503;28;20428;-81
2022/06/01 13:13:16;;;;;;;4.40;1.30;;;21.80;62.50;;;;;;4996920;28;20507;-81
2022/06/01 13:15:43;;;;;;;3.00;1.40;;;21.50;64.80;;;;;;4996516;28;20189;-81
2022/06/01 13:18:19;;;;;;;2.47;1.33;;;21.90;71.70;;;;;;5014362;28;20467;-81
2022/06/01 13:20:52;;;;;;;3.10;1.60;;;22.50;78.40;;;;;;4996757;28;20436;-80
2022/06/01 13:23:27;;;;;;;2.80;1.53;;;22.80;75.00;;;;;;5014401;28;20397;-82
2022/06/01 13:25:54;;;;;;;3.20;1.73;;;22.60;78.80;;;;;;5013232;28;20424;-80
2022/06/01 13:28:20;;;;;;;4.27;2.30;;;22.50;79.20;;;;;;5015122;28;20827;-82
2022/06/01 13:30:48;;;;;;;2.67;1.60;;;22.50;84.70;;;;;;4998396;28;20451;-82
2022/06/01 13:33:38;;;;;;;4.10;1.90;;;22.20;80.40;;;;;;4996540;28;20216;-81
2022/06/01 13:36:07;;;;;;;2.93;1.40;;;22.30;84.80;;;;;;4996202;28;20431;-81